Time,TemperatureF,DewpointF,PressureIn,WindDirection,WindDirectionDegrees,WindSpeedMPH,WindSpeedGustMPH,Humidity,HourlyPrecipIn,Conditions,Clouds,dailyrainin,SoftwareType,DateUTC
2013-02-06 00:02:00,61.5,57.0,30.01,SW,235,0.0,1.0,85,0.00,,,0.00,meteohub,2013-02-06 05:02:00,
2013-02-06 00:07:00,62.1,57.6,30.00,SW,229,3.0,3.0,85,0.00,,,0.00,meteohub,2013-02-06 05:07:00,
2013-02-06 00:12:00,62.2,57.7,30.01,SW,228,1.0,4.0,85,0.00,,,0.00,meteohub,2013-02-06 05:12:00,
2013-02-06 00:17:00,62.2,57.7,30.01,SW,226,0.0,4.0,85,0.00,,,0.00,meteohub,2013-02-06 05:17:00,
2013-02-06 00:22:00,62.2,57.7,30.01,SW,226,0.0,4.0,85,0.00,,,0.00,meteohub,2013-02-06 05:22:00,
2013-02-06 00:27:00,62.1,57.7,30.01,SW,226,0.0,2.0,86,0.00,,,0.00,meteohub,2013-02-06 05:27:00,
2013-02-06 00:32:00,62.1,58.1,30.00,SW,226,0.0,1.0,87,0.00,,,0.00,meteohub,2013-02-06 05:32:00,
2013-02-06 00:37:00,61.9,57.9,30.01,SW,226,0.0,2.0,87,0.00,,,0.00,meteohub,2013-02-06 05:37:00,
2013-02-06 00:42:00,61.9,57.9,30.01,SW,226,0.0,2.0,87,0.00,,,0.00,meteohub,2013-02-06 05:42:00,
2013-02-06 00:47:00,61.9,58.3,30.00,SW,224,0.0,2.0,88,0.00,,,0.00,meteohub,2013-02-06 05:47:00,
2013-02-06 00:52:00,61.7,57.7,30.00,SW,215,1.0,3.0,87,0.00,,,0.00,meteohub,2013-02-06 05:52:00,
2013-02-06 00:57:00,61.5,57.6,30.01,SSW,211,0.0,3.0,87,0.00,,,0.00,meteohub,2013-02-06 05:57:00,
2013-02-06 01:02:00,61.3,57.4,30.01,SSW,211,0.0,3.0,87,0.00,,,0.00,meteohub,2013-02-06 06:02:00,
2013-02-06 01:07:00,61.3,57.4,30.00,SSW,211,0.0,3.0,87,0.00,,,0.00,meteohub,2013-02-06 06:07:00,
2013-02-06 01:12:00,61.2,57.2,30.01,SSW,211,0.0,2.0,87,0.00,,,0.00,meteohub,2013-02-06 06:12:00,
2013-02-06 01:17:00,61.2,57.0,30.01,SSW,211,1.0,2.0,86,0.00,,,0.00,meteohub,2013-02-06 06:17:00,
2013-02-06 01:22:00,61.2,56.7,30.00,SSW,211,1.0,3.0,85,0.00,,,0.00,meteohub,2013-02-06 06:22:00,
2013-02-06 01:27:00,61.2,56.7,30.01,SSW,211,1.0,3.0,85,0.00,,,0.00,meteohub,2013-02-06 06:27:00,
2013-02-06 01:32:00,61.3,56.5,30.01,SSW,211,1.0,3.0,84,0.00,,,0.00,meteohub,2013-02-06 06:32:00,
2013-02-06 01:37:00,61.2,56.3,30.00,SSW,211,1.0,2.0,84,0.00,,,0.00,meteohub,2013-02-06 06:37:00,
2013-02-06 01:42:00,61.2,56.3,30.01,SSW,211,1.0,3.0,84,0.00,,,0.00,meteohub,2013-02-06 06:42:00,
2013-02-06 01:47:00,61.2,56.3,30.01,SSW,211,1.0,3.0,84,0.00,,,0.00,meteohub,2013-02-06 06:47:00,
2013-02-06 01:52:00,61.2,55.9,30.01,SSW,208,0.0,3.0,83,0.00,,,0.00,meteohub,2013-02-06 06:52:00,
2013-02-06 01:57:00,61.2,56.3,30.01,SSW,208,1.0,3.0,84,0.00,,,0.00,meteohub,2013-02-06 06:57:00,
2013-02-06 02:02:00,61.2,55.9,30.01,SSW,208,0.0,3.0,83,0.00,,,0.00,meteohub,2013-02-06 07:02:00,
2013-02-06 02:07:00,61.2,55.9,30.01,SSW,208,0.0,2.0,83,0.00,,,0.00,meteohub,2013-02-06 07:07:00,
2013-02-06 02:12:00,61.2,55.9,30.00,SSW,208,0.0,2.0,83,0.00,,,0.00,meteohub,2013-02-06 07:12:00,
2013-02-06 02:17:00,61.2,55.9,30.00,SSW,208,0.0,2.0,83,0.00,,,0.00,meteohub,2013-02-06 07:17:00,
2013-02-06 02:22:00,61.0,56.1,30.00,SSW,208,0.0,2.0,84,0.00,,,0.00,meteohub,2013-02-06 07:22:00,
2013-02-06 02:27:00,61.0,56.1,30.00,SSW,208,0.0,2.0,84,0.00,,,0.00,meteohub,2013-02-06 07:27:00,
2013-02-06 02:32:00,60.6,55.8,30.00,SSW,208,0.0,1.0,84,0.00,,,0.00,meteohub,2013-02-06 07:32:00,
2013-02-06 02:37:00,60.4,55.9,30.00,SSW,208,0.0,1.0,85,0.00,,,0.00,meteohub,2013-02-06 07:37:00,
2013-02-06 02:42:00,60.3,56.1,30.00,SSW,208,0.0,1.0,86,0.00,,,0.00,meteohub,2013-02-06 07:42:00,
2013-02-06 02:47:00,60.1,55.9,30.00,SSW,208,0.0,1.0,86,0.00,,,0.00,meteohub,2013-02-06 07:47:00,
2013-02-06 02:52:00,60.1,55.9,30.00,SSW,208,0.0,1.0,86,0.00,,,0.00,meteohub,2013-02-06 07:52:00,
2013-02-06 02:57:00,59.7,55.6,30.00,SSW,208,0.0,1.0,86,0.00,,,0.00,meteohub,2013-02-06 07:57:00,
2013-02-06 03:02:00,59.7,55.6,30.00,SSW,208,0.0,1.0,86,0.00,,,0.00,meteohub,2013-02-06 08:02:00,
2013-02-06 03:07:00,59.5,55.4,29.99,SSW,208,0.0,1.0,86,0.00,,,0.00,meteohub,2013-02-06 08:07:00,
2013-02-06 03:12:00,59.7,55.6,30.00,SSW,208,0.0,1.0,86,0.00,,,0.00,meteohub,2013-02-06 08:12:00,
2013-02-06 03:17:00,59.7,55.6,29.99,SSW,208,0.0,1.0,86,0.00,,,0.00,meteohub,2013-02-06 08:17:00,
2013-02-06 03:22:00,59.7,55.6,29.99,SSW,208,1.0,2.0,86,0.00,,,0.00,meteohub,2013-02-06 08:22:00,
2013-02-06 03:27:00,59.9,55.8,29.99,SSW,208,0.0,2.0,86,0.00,,,0.00,meteohub,2013-02-06 08:27:00,
2013-02-06 03:32:00,60.1,55.9,30.00,SSW,208,0.0,2.0,86,0.00,,,0.00,meteohub,2013-02-06 08:32:00,
2013-02-06 03:37:00,60.1,55.6,30.00,SSW,208,0.0,2.0,85,0.00,,,0.00,meteohub,2013-02-06 08:37:00,
2013-02-06 03:42:00,60.1,55.6,30.00,SSW,208,0.0,2.0,85,0.00,,,0.00,meteohub,2013-02-06 08:42:00,
2013-02-06 03:47:00,60.1,55.6,30.00,SSW,208,0.0,2.0,85,0.00,,,0.00,meteohub,2013-02-06 08:47:00,
2013-02-06 03:52:00,60.1,55.6,30.00,SSW,208,0.0,2.0,85,0.00,,,0.00,meteohub,2013-02-06 08:52:00,
2013-02-06 03:57:00,60.3,55.8,30.00,SSW,208,0.0,2.0,85,0.00,,,0.00,meteohub,2013-02-06 08:57:00,
2013-02-06 04:02:00,60.1,55.6,30.00,SSW,208,1.0,1.0,85,0.00,,,0.00,meteohub,2013-02-06 09:02:00,
2013-02-06 04:07:00,60.3,56.1,30.00,SSW,208,0.0,1.0,86,0.00,,,0.00,meteohub,2013-02-06 09:07:00,
2013-02-06 04:12:00,60.3,56.1,30.00,SSW,208,1.0,1.0,86,0.00,,,0.00,meteohub,2013-02-06 09:12:00,
2013-02-06 04:17:00,60.1,55.6,30.00,SSW,208,0.0,2.0,85,0.00,,,0.00,meteohub,2013-02-06 09:17:00,
2013-02-06 04:22:00,60.3,55.8,30.00,South,181,0.0,2.0,85,0.00,,,0.00,meteohub,2013-02-06 09:22:00,
2013-02-06 04:27:00,60.3,55.4,30.00,South,181,1.0,4.0,84,0.00,,,0.00,meteohub,2013-02-06 09:27:00,
2013-02-06 04:32:00,60.4,55.2,30.00,SSE,168,1.0,4.0,83,0.00,,,0.00,meteohub,2013-02-06 09:32:00,
2013-02-06 04:37:00,60.6,55.4,30.00,SSE,165,2.0,4.0,83,0.00,,,0.00,meteohub,2013-02-06 09:37:00,
2013-02-06 04:42:00,60.6,55.0,30.00,SSE,164,1.0,4.0,82,0.00,,,0.00,meteohub,2013-02-06 09:42:00,
2013-02-06 04:47:00,60.6,55.4,29.99,SSE,164,0.0,4.0,83,0.00,,,0.00,meteohub,2013-02-06 09:47:00,
2013-02-06 04:52:00,60.6,55.4,29.99,SSE,164,0.0,3.0,83,0.00,,,0.00,meteohub,2013-02-06 09:52:00,
2013-02-06 04:57:00,60.8,55.6,29.99,SSE,164,3.0,3.0,83,0.00,,,0.00,meteohub,2013-02-06 09:57:00,
2013-02-06 05:02:00,60.8,55.2,30.00,SSE,164,1.0,3.0,82,0.00,,,0.00,meteohub,2013-02-06 10:02:00,
2013-02-06 05:07:00,61.0,55.4,30.00,SSE,164,2.0,3.0,82,0.00,,,0.00,meteohub,2013-02-06 10:07:00,
2013-02-06 05:12:00,61.0,55.0,30.00,SSE,164,0.0,3.0,81,0.00,,,0.00,meteohub,2013-02-06 10:12:00,
2013-02-06 05:17:00,61.0,55.0,30.00,SSE,164,0.0,3.0,81,0.00,,,0.00,meteohub,2013-02-06 10:17:00,
2013-02-06 05:22:00,61.2,55.2,30.00,SSE,164,2.0,2.0,81,0.00,,,0.00,meteohub,2013-02-06 10:22:00,
2013-02-06 05:27:00,61.2,55.2,30.00,SSE,164,1.0,2.0,81,0.00,,,0.00,meteohub,2013-02-06 10:27:00,
2013-02-06 05:37:00,61.2,55.2,30.00,SSE,164,0.0,3.0,81,0.00,,,0.00,meteohub,2013-02-06 10:37:00,
2013-02-06 05:42:00,61.3,55.4,30.01,SSE,164,3.0,3.0,81,0.00,,,0.00,meteohub,2013-02-06 10:42:00,
2013-02-06 05:47:00,61.3,55.4,30.01,SSE,164,0.0,3.0,81,0.00,,,0.00,meteohub,2013-02-06 10:47:00,
2013-02-06 05:52:00,61.5,55.6,30.01,SSE,164,0.0,3.0,81,0.00,,,0.00,meteohub,2013-02-06 10:52:00,
2013-02-06 05:57:00,61.5,55.2,30.01,SSE,164,2.0,3.0,80,0.00,,,0.00,meteohub,2013-02-06 10:57:00,
2013-02-06 06:02:00,61.7,55.4,30.01,SSE,164,1.0,2.0,80,0.00,,,0.00,meteohub,2013-02-06 11:02:00,
2013-02-06 06:07:00,61.9,55.6,30.01,SSE,164,0.0,2.0,80,0.00,,,0.00,meteohub,2013-02-06 11:07:00,
2013-02-06 06:17:00,61.7,55.0,30.02,SSE,156,1.0,4.0,79,0.00,,,0.00,meteohub,2013-02-06 11:17:00,
2013-02-06 06:22:00,61.9,55.2,30.02,SSE,156,1.0,4.0,79,0.00,,,0.00,meteohub,2013-02-06 11:22:00,
2013-02-06 06:27:00,61.9,55.2,30.02,SSE,156,1.0,4.0,79,0.00,,,0.00,meteohub,2013-02-06 11:27:00,
2013-02-06 06:32:00,61.7,55.0,30.02,SSE,155,1.0,3.0,79,0.00,,,0.00,meteohub,2013-02-06 11:32:00,
2013-02-06 06:37:00,61.7,55.0,30.02,SSE,155,1.0,3.0,79,0.00,,,0.00,meteohub,2013-02-06 11:37:00,
2013-02-06 06:42:00,61.7,55.0,30.02,SSE,155,0.0,4.0,79,0.00,,,0.00,meteohub,2013-02-06 11:42:00,
2013-02-06 06:47:00,61.5,54.9,30.02,SSE,155,1.0,4.0,79,0.00,,,0.00,meteohub,2013-02-06 11:47:00,
2013-02-06 06:52:00,61.7,55.0,30.02,SSE,155,0.0,4.0,79,0.00,,,0.00,meteohub,2013-02-06 11:52:00,
2013-02-06 06:57:00,61.9,55.2,30.02,SSE,155,2.0,3.0,79,0.00,,,0.00,meteohub,2013-02-06 11:57:00,
2013-02-06 07:02:00,61.9,55.2,30.03,SSE,155,2.0,3.0,79,0.00,,,0.00,meteohub,2013-02-06 12:02:00,
2013-02-06 07:07:00,61.9,55.2,30.03,SSE,155,2.0,5.0,79,0.00,,,0.00,meteohub,2013-02-06 12:07:00,
2013-02-06 07:12:00,61.9,55.2,30.03,SSE,155,1.0,5.0,79,0.00,,,0.00,meteohub,2013-02-06 12:12:00,
2013-02-06 07:17:00,61.9,55.2,30.03,SSE,155,0.0,5.0,79,0.00,,,0.00,meteohub,2013-02-06 12:17:00,
2013-02-06 07:22:00,61.9,55.2,30.03,SSE,155,0.0,4.0,79,0.00,,,0.00,meteohub,2013-02-06 12:22:00,
2013-02-06 07:27:00,61.9,55.2,30.03,SSE,155,0.0,3.0,79,0.00,,,0.00,meteohub,2013-02-06 12:27:00,
2013-02-06 07:32:00,61.9,55.2,30.03,SSE,155,0.0,2.0,79,0.00,,,0.00,meteohub,2013-02-06 12:32:00,
2013-02-06 07:37:00,61.9,55.6,30.03,SSE,155,1.0,2.0,80,0.00,,,0.00,meteohub,2013-02-06 12:37:00,
2013-02-06 07:42:00,61.9,55.6,30.04,SSE,155,0.0,2.0,80,0.00,,,0.00,meteohub,2013-02-06 12:42:00,
2013-02-06 07:47:00,61.7,55.4,30.04,SSE,155,1.0,2.0,80,0.00,,,0.00,meteohub,2013-02-06 12:47:00,
2013-02-06 07:52:00,61.7,55.4,30.04,SSE,155,2.0,2.0,80,0.00,,,0.00,meteohub,2013-02-06 12:52:00,
2013-02-06 07:57:00,61.7,55.4,30.04,SSE,155,0.0,3.0,80,0.00,,,0.00,meteohub,2013-02-06 12:57:00,
2013-02-06 08:02:00,61.9,55.6,30.04,SSE,155,0.0,3.0,80,0.00,,,0.00,meteohub,2013-02-06 13:02:00,
2013-02-06 08:07:00,62.1,55.8,30.04,SSE,155,0.0,3.0,80,0.00,,,0.00,meteohub,2013-02-06 13:07:00,
2013-02-06 08:12:00,62.1,55.4,30.04,SSE,155,1.0,3.0,79,0.00,,,0.00,meteohub,2013-02-06 13:12:00,
2013-02-06 08:17:00,62.2,55.6,30.04,SSE,155,1.0,3.0,79,0.00,,,0.00,meteohub,2013-02-06 13:17:00,
2013-02-06 08:22:00,62.4,55.8,30.04,SSE,155,1.0,3.0,79,0.00,,,0.00,meteohub,2013-02-06 13:22:00,
2013-02-06 08:27:00,62.8,56.1,30.05,SSE,155,0.0,3.0,79,0.00,,,0.00,meteohub,2013-02-06 13:27:00,
2013-02-06 08:37:00,63.1,56.1,30.05,SSE,153,0.0,4.0,78,0.00,,,0.00,meteohub,2013-02-06 13:37:00,
2013-02-06 08:42:00,63.3,56.3,30.05,SSE,153,0.0,4.0,78,0.00,,,0.00,meteohub,2013-02-06 13:42:00,
2013-02-06 08:47:00,63.5,56.5,30.06,SSE,153,0.0,4.0,78,0.00,,,0.00,meteohub,2013-02-06 13:47:00,
2013-02-06 08:52:00,63.7,56.3,30.06,SSE,153,3.0,3.0,77,0.00,,,0.00,meteohub,2013-02-06 13:52:00,
2013-02-06 08:57:00,63.7,56.3,30.06,SSE,150,2.0,4.0,77,0.00,,,0.00,meteohub,2013-02-06 13:57:00,
2013-02-06 09:02:00,63.9,56.5,30.06,SSE,150,1.0,4.0,77,0.00,,,0.00,meteohub,2013-02-06 14:02:00,
2013-02-06 09:07:00,64.0,56.7,30.06,SE,146,1.0,4.0,77,0.00,,,0.00,meteohub,2013-02-06 14:07:00,
2013-02-06 09:12:00,64.2,56.5,30.06,SE,144,2.0,4.0,76,0.00,,,0.00,meteohub,2013-02-06 14:12:00,
2013-02-06 09:17:00,64.6,56.8,30.07,SE,144,0.0,4.0,76,0.00,,,0.00,meteohub,2013-02-06 14:17:00,
2013-02-06 09:22:00,64.9,56.8,30.06,SE,126,1.0,4.0,75,0.00,,,0.00,meteohub,2013-02-06 14:22:00,
2013-02-06 09:27:00,65.1,57.0,30.06,SE,126,2.0,5.0,75,0.00,,,0.00,meteohub,2013-02-06 14:27:00,
2013-02-06 09:32:00,65.7,57.2,30.06,SE,128,1.0,5.0,74,0.00,,,0.00,meteohub,2013-02-06 14:32:00,
2013-02-06 09:37:00,65.8,57.0,30.06,ESE,109,3.0,7.0,73,0.00,,,0.00,meteohub,2013-02-06 14:37:00,
2013-02-06 09:42:00,66.2,57.2,30.07,ESE,103,4.0,7.0,73,0.00,,,0.00,meteohub,2013-02-06 14:42:00,
2013-02-06 09:47:00,66.7,57.4,30.07,SE,134,1.0,7.0,72,0.00,,,0.00,meteohub,2013-02-06 14:47:00,
2013-02-06 09:52:00,67.1,57.4,30.08,SE,136,3.0,7.0,71,0.00,,,0.00,meteohub,2013-02-06 14:52:00,
2013-02-06 09:57:00,67.5,57.0,30.07,ESE,119,1.0,5.0,69,0.00,,,0.00,meteohub,2013-02-06 14:57:00,
2013-02-06 10:02:00,67.6,57.0,30.08,ESE,117,3.0,5.0,69,0.00,,,0.00,meteohub,2013-02-06 15:02:00,
2013-02-06 10:07:00,68.0,57.4,30.08,ESE,104,2.0,8.0,69,0.00,,,0.00,meteohub,2013-02-06 15:07:00,
2013-02-06 10:12:00,68.5,57.2,30.08,SSE,153,2.0,8.0,67,0.00,,,0.00,meteohub,2013-02-06 15:12:00,
2013-02-06 10:17:00,69.1,57.2,30.08,ESE,118,3.0,8.0,66,0.00,,,0.00,meteohub,2013-02-06 15:17:00,
2013-02-06 10:22:00,69.4,57.6,30.08,SE,128,1.0,7.0,66,0.00,,,0.00,meteohub,2013-02-06 15:22:00,
2013-02-06 10:27:00,70.0,57.7,30.07,SE,144,7.0,7.0,65,0.00,,,0.00,meteohub,2013-02-06 15:27:00,
2013-02-06 10:32:00,70.0,57.7,30.08,SE,129,8.0,13.0,65,0.00,,,0.00,meteohub,2013-02-06 15:32:00,
2013-02-06 10:37:00,70.2,57.4,30.08,ENE,75,5.0,13.0,64,0.00,,,0.00,meteohub,2013-02-06 15:37:00,
2013-02-06 10:42:00,70.3,57.2,30.07,ESE,113,7.0,13.0,63,0.00,,,0.00,meteohub,2013-02-06 15:42:00,
2013-02-06 10:47:00,70.9,57.7,30.07,SE,135,6.0,13.0,63,0.00,,,0.00,meteohub,2013-02-06 15:47:00,
2013-02-06 10:52:00,70.9,57.2,30.08,SSE,153,6.0,13.0,62,0.00,,,0.00,meteohub,2013-02-06 15:52:00,
2013-02-06 10:57:00,70.9,57.7,30.08,SE,146,2.0,12.0,63,0.00,,,0.00,meteohub,2013-02-06 15:57:00,
2013-02-06 11:02:00,71.1,57.4,30.07,SSE,149,4.0,13.0,62,0.00,,,0.00,meteohub,2013-02-06 16:02:00,
2013-02-06 11:07:00,71.8,57.6,30.07,SSE,154,0.0,13.0,61,0.00,,,0.00,meteohub,2013-02-06 16:07:00,
2013-02-06 11:12:00,72.0,57.4,30.07,ESE,112,3.0,12.0,60,0.00,,,0.00,meteohub,2013-02-06 16:12:00,
2013-02-06 11:17:00,72.1,57.6,30.07,SE,142,6.0,12.0,60,0.00,,,0.00,meteohub,2013-02-06 16:17:00,
2013-02-06 11:22:00,71.8,57.6,30.07,WSW,254,3.0,12.0,61,0.00,,,0.00,meteohub,2013-02-06 16:22:00,
2013-02-06 11:27:00,72.1,57.6,30.07,SE,124,6.0,12.0,60,0.00,,,0.00,meteohub,2013-02-06 16:27:00,
2013-02-06 11:32:00,72.3,57.7,30.07,SSE,150,8.0,9.0,60,0.00,,,0.00,meteohub,2013-02-06 16:32:00,
2013-02-06 11:37:00,71.6,57.4,30.07,SE,134,5.0,9.0,61,0.00,,,0.00,meteohub,2013-02-06 16:37:00,
2013-02-06 11:42:00,71.4,57.2,30.07,ESE,114,4.0,11.0,61,0.00,,,0.00,meteohub,2013-02-06 16:42:00,
2013-02-06 11:47:00,71.2,57.0,30.07,SE,138,6.0,11.0,61,0.00,,,0.00,meteohub,2013-02-06 16:47:00,
2013-02-06 11:52:00,71.4,57.2,30.07,SE,136,7.0,11.0,61,0.00,,,0.00,meteohub,2013-02-06 16:52:00,
2013-02-06 11:57:00,71.2,57.6,30.07,SSE,157,9.0,11.0,62,0.00,,,0.00,meteohub,2013-02-06 16:57:00,
2013-02-06 12:02:00,71.2,57.6,30.06,SSE,167,2.0,11.0,62,0.00,,,0.00,meteohub,2013-02-06 17:02:00,
2013-02-06 12:07:00,71.2,57.6,30.06,SE,146,7.0,11.0,62,0.00,,,0.00,meteohub,2013-02-06 17:07:00,
2013-02-06 12:12:00,71.2,57.9,30.06,SSE,165,2.0,11.0,63,0.00,,,0.00,meteohub,2013-02-06 17:12:00,
2013-02-06 12:22:00,71.6,58.3,30.07,SSE,166,4.0,9.0,63,0.00,,,0.00,meteohub,2013-02-06 17:22:00,
2013-02-06 12:27:00,71.2,57.9,30.06,South,171,5.0,9.0,63,0.00,,,0.00,meteohub,2013-02-06 17:27:00,
2013-02-06 12:32:00,71.2,58.5,30.06,SSE,147,4.0,10.0,64,0.00,,,0.00,meteohub,2013-02-06 17:32:00,
2013-02-06 12:37:00,71.6,58.8,30.06,SE,134,2.0,10.0,64,0.00,,,0.00,meteohub,2013-02-06 17:37:00,
2013-02-06 12:42:00,72.0,58.6,30.06,SE,139,2.0,10.0,63,0.00,,,0.00,meteohub,2013-02-06 17:42:00,
2013-02-06 12:47:00,72.1,58.5,30.05,SSE,155,1.0,7.0,62,0.00,,,0.00,meteohub,2013-02-06 17:47:00,
2013-02-06 12:57:00,72.1,58.8,30.04,SE,133,3.0,8.0,63,0.00,,,0.00,meteohub,2013-02-06 17:57:00,
2013-02-06 13:02:00,72.1,59.4,30.04,East,84,8.0,8.0,64,0.00,,,0.00,meteohub,2013-02-06 18:02:00,
2013-02-06 13:07:00,72.1,59.4,30.04,ESE,113,2.0,8.0,64,0.00,,,0.00,meteohub,2013-02-06 18:07:00,
2013-02-06 13:12:00,72.3,59.5,30.04,East,100,2.0,8.0,64,0.00,,,0.00,meteohub,2013-02-06 18:12:00,
2013-02-06 13:17:00,72.9,59.9,30.04,East,94,5.0,8.0,64,0.00,,,0.00,meteohub,2013-02-06 18:17:00,
2013-02-06 13:22:00,72.9,59.5,30.04,East,86,3.0,8.0,63,0.00,,,0.00,meteohub,2013-02-06 18:22:00,
2013-02-06 13:27:00,72.9,59.9,30.04,East,101,5.0,8.0,64,0.00,,,0.00,meteohub,2013-02-06 18:27:00,
2013-02-06 13:32:00,73.0,60.1,30.03,East,88,5.0,8.0,64,0.00,,,0.00,meteohub,2013-02-06 18:32:00,
2013-02-06 13:37:00,73.2,60.3,30.03,ESE,109,3.0,8.0,64,0.00,,,0.00,meteohub,2013-02-06 18:37:00,
2013-02-06 13:47:00,73.2,59.9,30.03,ESE,113,2.0,8.0,63,0.00,,,0.00,meteohub,2013-02-06 18:47:00,
2013-02-06 13:52:00,73.4,60.1,30.03,ESE,113,5.0,7.0,63,0.00,,,0.00,meteohub,2013-02-06 18:52:00,
2013-02-06 13:57:00,73.2,59.9,30.03,East,101,0.0,7.0,63,0.00,,,0.00,meteohub,2013-02-06 18:57:00,
2013-02-06 14:02:00,73.2,59.9,30.02,ESE,109,3.0,7.0,63,0.00,,,0.00,meteohub,2013-02-06 19:02:00,
2013-02-06 14:07:00,73.2,60.3,30.02,ESE,109,0.0,7.0,64,0.00,,,0.00,meteohub,2013-02-06 19:07:00,
2013-02-06 14:12:00,73.9,60.1,30.02,SE,127,1.0,6.0,62,0.00,,,0.00,meteohub,2013-02-06 19:12:00,
2013-02-06 14:17:00,73.9,60.1,30.02,East,99,2.0,5.0,62,0.00,,,0.00,meteohub,2013-02-06 19:17:00,
2013-02-06 14:22:00,74.1,60.8,30.02,ESE,113,2.0,5.0,63,0.00,,,0.00,meteohub,2013-02-06 19:22:00,
2013-02-06 14:27:00,74.3,60.4,30.02,SSE,155,2.0,5.0,62,0.00,,,0.00,meteohub,2013-02-06 19:27:00,
2013-02-06 14:32:00,74.5,60.6,30.02,SSE,157,3.0,6.0,62,0.00,,,0.00,meteohub,2013-02-06 19:32:00,
2013-02-06 14:37:00,74.7,60.8,30.02,SSW,205,4.0,7.0,62,0.00,,,0.00,meteohub,2013-02-06 19:37:00,
2013-02-06 14:42:00,74.7,60.8,30.02,WSW,238,1.0,7.0,62,0.00,,,0.00,meteohub,2013-02-06 19:42:00,
2013-02-06 14:47:00,74.7,61.2,30.02,WNW,286,6.0,7.0,63,0.00,,,0.00,meteohub,2013-02-06 19:47:00,
2013-02-06 14:52:00,74.5,61.0,30.02,WNW,298,4.0,8.0,63,0.00,,,0.00,meteohub,2013-02-06 19:52:00,
2013-02-06 14:57:00,73.8,60.4,30.02,WNW,284,5.0,9.0,63,0.00,,,0.00,meteohub,2013-02-06 19:57:00,
2013-02-06 15:02:00,73.6,60.6,30.02,West,260,5.0,9.0,64,0.00,,,0.00,meteohub,2013-02-06 20:02:00,
2013-02-06 15:07:00,73.0,60.6,30.02,WNW,286,6.0,9.0,65,0.00,,,0.00,meteohub,2013-02-06 20:07:00,
2013-02-06 15:12:00,72.9,61.3,30.02,WNW,288,6.0,9.0,67,0.00,,,0.00,meteohub,2013-02-06 20:12:00,
2013-02-06 15:17:00,72.9,60.8,30.02,WSW,253,4.0,9.0,66,0.00,,,0.00,meteohub,2013-02-06 20:17:00,
2013-02-06 15:22:00,73.0,61.5,30.02,WNW,282,4.0,9.0,67,0.00,,,0.00,meteohub,2013-02-06 20:22:00,
2013-02-06 15:27:00,72.9,60.8,30.02,WNW,289,5.0,9.0,66,0.00,,,0.00,meteohub,2013-02-06 20:27:00,
2013-02-06 15:32:00,72.9,61.3,30.02,WNW,284,4.0,9.0,67,0.00,,,0.00,meteohub,2013-02-06 20:32:00,
2013-02-06 15:37:00,72.9,60.8,30.02,WNW,302,3.0,8.0,66,0.00,,,0.00,meteohub,2013-02-06 20:37:00,
2013-02-06 15:42:00,72.9,61.3,30.01,West,281,2.0,8.0,67,0.00,,,0.00,meteohub,2013-02-06 20:42:00,
2013-02-06 15:47:00,72.9,60.8,30.01,WSW,252,1.0,8.0,66,0.00,,,0.00,meteohub,2013-02-06 20:47:00,
2013-02-06 15:52:00,73.2,61.2,30.01,WNW,302,0.0,8.0,66,0.00,,,0.00,meteohub,2013-02-06 20:52:00,
2013-02-06 15:57:00,73.6,61.2,30.01,WNW,286,3.0,8.0,65,0.00,,,0.00,meteohub,2013-02-06 20:57:00,
2013-02-06 16:02:00,73.4,61.0,30.01,NW,309,4.0,7.0,65,0.00,,,0.00,meteohub,2013-02-06 21:02:00,
2013-02-06 16:07:00,73.0,61.0,30.01,West,275,7.0,7.0,66,0.00,,,0.00,meteohub,2013-02-06 21:07:00,
2013-02-06 16:12:00,73.2,61.2,30.01,WSW,248,4.0,10.0,66,0.00,,,0.00,meteohub,2013-02-06 21:12:00,
2013-02-06 16:17:00,73.8,61.3,30.01,WSW,257,3.0,10.0,65,0.00,,,0.00,meteohub,2013-02-06 21:17:00,
2013-02-06 16:22:00,73.8,61.3,30.00,West,269,3.0,10.0,65,0.00,,,0.00,meteohub,2013-02-06 21:22:00,
2013-02-06 16:27:00,73.8,61.3,30.00,NW,325,3.0,8.0,65,0.00,,,0.00,meteohub,2013-02-06 21:27:00,
2013-02-06 16:32:00,73.8,61.3,30.01,WNW,302,5.0,8.0,65,0.00,,,0.00,meteohub,2013-02-06 21:32:00,
2013-02-06 16:37:00,73.8,61.3,30.00,WNW,290,3.0,8.0,65,0.00,,,0.00,meteohub,2013-02-06 21:37:00,
2013-02-06 16:42:00,73.9,61.3,30.00,WNW,290,0.0,7.0,65,0.00,,,0.00,meteohub,2013-02-06 21:42:00,
2013-02-06 16:47:00,74.3,61.7,30.00,WNW,290,2.0,6.0,65,0.00,,,0.00,meteohub,2013-02-06 21:47:00,
2013-02-06 16:52:00,74.7,61.7,30.00,WNW,290,4.0,5.0,64,0.00,,,0.00,meteohub,2013-02-06 21:52:00,
2013-02-06 16:57:00,75.0,62.1,30.00,WNW,290,3.0,4.0,64,0.00,,,0.00,meteohub,2013-02-06 21:57:00,
2013-02-06 17:07:00,74.8,61.9,30.00,WNW,286,0.0,5.0,64,0.00,,,0.00,meteohub,2013-02-06 22:07:00,
2013-02-06 17:12:00,74.7,61.7,30.00,West,277,1.0,5.0,64,0.00,,,0.00,meteohub,2013-02-06 22:12:00,
2013-02-06 17:17:00,74.8,62.2,30.00,West,277,1.0,5.0,65,0.00,,,0.00,meteohub,2013-02-06 22:17:00,
2013-02-06 17:22:00,75.0,62.1,30.00,West,277,2.0,5.0,64,0.00,,,0.00,meteohub,2013-02-06 22:22:00,
2013-02-06 17:27:00,75.0,62.1,30.01,West,276,3.0,5.0,64,0.00,,,0.00,meteohub,2013-02-06 22:27:00,
2013-02-06 17:32:00,74.7,62.1,30.01,West,276,2.0,5.0,65,0.00,,,0.00,meteohub,2013-02-06 22:32:00,
2013-02-06 17:37:00,74.5,62.4,30.01,West,276,2.0,5.0,66,0.00,,,0.00,meteohub,2013-02-06 22:37:00,
2013-02-06 17:42:00,74.3,62.2,30.01,West,276,1.0,4.0,66,0.00,,,0.00,meteohub,2013-02-06 22:42:00,
2013-02-06 17:47:00,74.1,62.4,30.01,West,276,1.0,4.0,67,0.00,,,0.00,meteohub,2013-02-06 22:47:00,
2013-02-06 17:52:00,73.8,62.1,30.01,West,276,3.0,3.0,67,0.00,,,0.00,meteohub,2013-02-06 22:52:00,
2013-02-06 17:57:00,73.6,62.4,30.01,West,276,3.0,3.0,68,0.00,,,0.00,meteohub,2013-02-06 22:57:00,
2013-02-06 18:02:00,73.2,62.1,30.01,West,276,2.0,4.0,68,0.00,,,0.00,meteohub,2013-02-06 23:02:00,
2013-02-06 18:07:00,73.0,62.2,30.01,West,276,2.0,4.0,69,0.00,,,0.00,meteohub,2013-02-06 23:07:00,
2013-02-06 18:12:00,72.9,62.1,30.01,West,278,1.0,4.0,69,0.00,,,0.00,meteohub,2013-02-06 23:12:00,
2013-02-06 18:17:00,72.3,62.4,30.01,West,279,2.0,6.0,71,0.00,,,0.00,meteohub,2013-02-06 23:17:00,
2013-02-06 18:22:00,72.1,62.2,30.01,West,279,3.0,6.0,71,0.00,,,0.00,meteohub,2013-02-06 23:22:00,
2013-02-06 18:27:00,72.0,62.4,30.01,West,279,3.0,6.0,72,0.00,,,0.00,meteohub,2013-02-06 23:27:00,
2013-02-06 18:32:00,71.6,62.4,30.01,West,279,1.0,5.0,73,0.00,,,0.00,meteohub,2013-02-06 23:32:00,
2013-02-06 18:37:00,71.4,62.2,30.01,West,279,3.0,5.0,73,0.00,,,0.00,meteohub,2013-02-06 23:37:00,
2013-02-06 18:42:00,71.1,62.4,30.01,West,279,2.0,5.0,74,0.00,,,0.00,meteohub,2013-02-06 23:42:00,
2013-02-06 18:47:00,70.9,62.2,30.01,West,279,1.0,4.0,74,0.00,,,0.00,meteohub,2013-02-06 23:47:00,
2013-02-06 18:52:00,70.5,62.2,30.01,West,279,2.0,5.0,75,0.00,,,0.00,meteohub,2013-02-06 23:52:00,
2013-02-06 18:57:00,70.3,62.4,30.02,West,279,3.0,5.0,76,0.00,,,0.00,meteohub,2013-02-06 23:57:00,
2013-02-06 19:02:00,70.2,62.2,30.02,West,279,2.0,5.0,76,0.00,,,0.00,meteohub,2013-02-07 00:02:00,
2013-02-06 19:07:00,70.2,62.6,30.02,West,279,1.0,4.0,77,0.00,,,0.00,meteohub,2013-02-07 00:07:00,
2013-02-06 19:12:00,70.0,62.4,30.02,West,279,1.0,4.0,77,0.00,,,0.00,meteohub,2013-02-07 00:12:00,
2013-02-06 19:17:00,69.8,62.2,30.02,West,279,1.0,2.0,77,0.00,,,0.00,meteohub,2013-02-07 00:17:00,
2013-02-06 19:22:00,69.6,62.1,30.02,West,279,1.0,2.0,77,0.00,,,0.00,meteohub,2013-02-07 00:22:00,
2013-02-06 19:27:00,69.4,61.9,30.02,West,279,0.0,3.0,77,0.00,,,0.00,meteohub,2013-02-07 00:27:00,
2013-02-06 19:32:00,69.3,62.1,30.02,West,279,0.0,3.0,78,0.00,,,0.00,meteohub,2013-02-07 00:32:00,
2013-02-06 19:37:00,69.1,61.9,30.03,West,279,0.0,2.0,78,0.00,,,0.00,meteohub,2013-02-07 00:37:00,
2013-02-06 19:42:00,68.7,61.5,30.03,West,279,1.0,2.0,78,0.00,,,0.00,meteohub,2013-02-07 00:42:00,
2013-02-06 19:47:00,68.5,61.7,30.03,West,279,1.0,2.0,79,0.00,,,0.00,meteohub,2013-02-07 00:47:00,
2013-02-06 19:52:00,68.2,61.3,30.03,West,279,0.0,2.0,79,0.00,,,0.00,meteohub,2013-02-07 00:52:00,
2013-02-06 19:57:00,68.0,61.2,30.03,West,279,0.0,2.0,79,0.00,,,0.00,meteohub,2013-02-07 00:57:00,
2013-02-06 20:02:00,67.8,61.3,30.03,West,279,0.0,2.0,80,0.00,,,0.00,meteohub,2013-02-07 01:02:00,
2013-02-06 20:07:00,67.6,61.5,30.03,West,279,1.0,1.0,81,0.00,,,0.00,meteohub,2013-02-07 01:07:00,
2013-02-06 20:12:00,67.5,61.7,30.03,West,279,0.0,2.0,82,0.00,,,0.00,meteohub,2013-02-07 01:12:00,
2013-02-06 20:17:00,67.3,61.9,30.04,West,279,1.0,2.0,83,0.00,,,0.00,meteohub,2013-02-07 01:17:00,
2013-02-06 20:22:00,67.3,61.9,30.04,West,279,1.0,2.0,83,0.00,,,0.00,meteohub,2013-02-07 01:22:00,
2013-02-06 20:27:00,66.9,61.5,30.04,West,279,0.0,2.0,83,0.00,,,0.00,meteohub,2013-02-07 01:27:00,
2013-02-06 20:32:00,66.9,61.5,30.04,West,279,1.0,3.0,83,0.00,,,0.00,meteohub,2013-02-07 01:32:00,
2013-02-06 20:37:00,66.7,61.3,30.04,West,279,0.0,3.0,83,0.00,,,0.00,meteohub,2013-02-07 01:37:00,
2013-02-06 20:42:00,66.7,61.0,30.04,West,279,0.0,2.0,82,0.00,,,0.00,meteohub,2013-02-07 01:42:00,
2013-02-06 20:47:00,66.6,61.2,30.04,West,279,0.0,2.0,83,0.00,,,0.00,meteohub,2013-02-07 01:47:00,
2013-02-06 20:52:00,66.0,61.0,30.04,West,279,0.0,1.0,84,0.00,,,0.00,meteohub,2013-02-07 01:52:00,
2013-02-06 20:57:00,65.8,60.8,30.04,West,279,0.0,1.0,84,0.00,,,0.00,meteohub,2013-02-07 01:57:00,
2013-02-06 21:02:00,66.0,61.3,30.04,West,279,2.0,2.0,85,0.00,,,0.00,meteohub,2013-02-07 02:02:00,
2013-02-06 21:07:00,66.4,61.7,30.04,West,279,1.0,4.0,85,0.00,,,0.00,meteohub,2013-02-07 02:07:00,
2013-02-06 21:12:00,66.2,61.5,30.04,West,279,2.0,4.0,85,0.00,,,0.00,meteohub,2013-02-07 02:12:00,
2013-02-06 21:17:00,66.0,61.0,30.04,West,279,0.0,4.0,84,0.00,,,0.00,meteohub,2013-02-07 02:17:00,
2013-02-06 21:22:00,66.0,61.0,30.04,West,279,3.0,3.0,84,0.00,,,0.00,meteohub,2013-02-07 02:22:00,
2013-02-06 21:27:00,65.8,60.8,30.04,West,279,2.0,3.0,84,0.00,,,0.00,meteohub,2013-02-07 02:27:00,
2013-02-06 21:32:00,65.8,60.8,30.05,West,280,3.0,4.0,84,0.00,,,0.00,meteohub,2013-02-07 02:32:00,
2013-02-06 21:37:00,65.8,60.8,30.04,West,281,3.0,4.0,84,0.00,,,0.00,meteohub,2013-02-07 02:37:00,
2013-02-06 21:42:00,65.8,60.8,30.04,WNW,284,1.0,5.0,84,0.00,,,0.00,meteohub,2013-02-07 02:42:00,
2013-02-06 21:47:00,65.8,60.8,30.04,WNW,284,2.0,5.0,84,0.00,,,0.00,meteohub,2013-02-07 02:47:00,
2013-02-06 21:52:00,65.8,60.6,30.04,WNW,284,1.0,5.0,83,0.00,,,0.00,meteohub,2013-02-07 02:52:00,
2013-02-06 21:57:00,65.7,60.4,30.04,WNW,285,2.0,4.0,83,0.00,,,0.00,meteohub,2013-02-07 02:57:00,
2013-02-06 22:02:00,65.8,60.6,30.04,WNW,285,3.0,4.0,83,0.00,,,0.00,meteohub,2013-02-07 03:02:00,
2013-02-06 22:07:00,65.8,60.6,30.04,WNW,285,3.0,4.0,83,0.00,,,0.00,meteohub,2013-02-07 03:07:00,
2013-02-06 22:12:00,65.8,60.6,30.04,WNW,285,1.0,4.0,83,0.00,,,0.00,meteohub,2013-02-07 03:12:00,
2013-02-06 22:17:00,65.8,60.8,30.04,WNW,285,1.0,4.0,84,0.00,,,0.00,meteohub,2013-02-07 03:17:00,
2013-02-06 22:22:00,65.8,60.8,30.04,WNW,286,2.0,4.0,84,0.00,,,0.00,meteohub,2013-02-07 03:22:00,
2013-02-06 22:27:00,65.8,60.6,30.03,WNW,298,3.0,5.0,83,0.00,,,0.00,meteohub,2013-02-07 03:27:00,
2013-02-06 22:32:00,65.8,60.6,30.03,NW,304,3.0,6.0,83,0.00,,,0.00,meteohub,2013-02-07 03:32:00,
2013-02-06 22:37:00,66.0,60.6,30.04,NW,304,1.0,6.0,83,0.00,,,0.00,meteohub,2013-02-07 03:37:00,
2013-02-06 22:42:00,65.8,60.6,30.04,NW,304,0.0,5.0,83,0.00,,,0.00,meteohub,2013-02-07 03:42:00,
2013-02-06 22:47:00,65.8,60.6,30.04,NW,304,1.0,4.0,83,0.00,,,0.00,meteohub,2013-02-07 03:47:00,
2013-02-06 22:52:00,65.8,60.6,30.03,NW,304,2.0,3.0,83,0.00,,,0.00,meteohub,2013-02-07 03:52:00,
2013-02-06 22:57:00,65.8,60.3,30.03,NW,305,0.0,4.0,82,0.00,,,0.00,meteohub,2013-02-07 03:57:00,
2013-02-06 23:02:00,65.7,60.1,30.04,NW,305,0.0,4.0,82,0.00,,,0.00,meteohub,2013-02-07 04:02:00,
2013-02-06 23:07:00,65.7,60.1,30.04,NW,305,0.0,4.0,82,0.00,,,0.00,meteohub,2013-02-07 04:07:00,
2013-02-06 23:12:00,65.5,60.3,30.04,NW,305,0.0,1.0,83,0.00,,,0.00,meteohub,2013-02-07 04:12:00,
2013-02-06 23:17:00,65.5,60.3,30.04,NW,305,0.0,1.0,83,0.00,,,0.00,meteohub,2013-02-07 04:17:00,
2013-02-06 23:22:00,65.3,60.1,30.03,NW,305,1.0,1.0,83,0.00,,,0.00,meteohub,2013-02-07 04:22:00,
2013-02-06 23:27:00,65.3,59.7,30.03,NW,305,1.0,2.0,82,0.00,,,0.00,meteohub,2013-02-07 04:27:00,
2013-02-06 23:32:00,65.3,59.7,30.03,NW,309,2.0,4.0,82,0.00,,,0.00,meteohub,2013-02-07 04:32:00,
2013-02-06 23:37:00,65.3,59.7,30.02,NW,325,3.0,4.0,82,0.00,,,0.00,meteohub,2013-02-07 04:37:00,
2013-02-06 23:42:00,65.3,60.1,30.02,NNW,331,2.0,4.0,83,0.00,,,0.00,meteohub,2013-02-07 04:42:00,
2013-02-06 23:47:00,65.1,59.9,30.03,NNW,331,1.0,4.0,83,0.00,,,0.00,meteohub,2013-02-07 04:47:00,
2013-02-06 23:52:00,65.1,59.9,30.03,ENE,64,2.0,4.0,83,0.00,,,0.00,meteohub,2013-02-07 04:52:00,
2013-02-06 23:57:00,65.5,59.9,30.03,ENE,68,2.0,8.0,82,0.00,,,0.00,meteohub,2013-02-07 04:57:00,